Dinard, France

20:37 CEST le 01 septembre 2014 (GMT +0200)
Saint Briac | Change Station
CLOSE
Current Station
Stations météorologiques personnelles
Location: Saint-Briac-sur-Mer, Bretagne
Altitude: 106 ft
Stations météo à proximité

Alt. 106 ft 48.62 °N, 2.13 °W | Updated 32 minutes ago

Mostly Cloudy
Nuageux
66.4 ° F
Paraît 66.4 ° F
N
1.6
Vent Variable Vent de NNE
Gusts 0.0 mph

Aujourd'hui
Haut(e) -- | Bas -- ° F
--% Risque de précip.
Hier
Haut(e) -- | Bas -- ° F
Precip. -- pouce
7:25 AM 8:50 PM
Lune montante, 43% visible
Pression 30.18 pouce
Visibilité 6.2 Miles terrestres
Nuages Nuages épars 4300 ft
Nuageux 7200 ft
Point de rosée 55 ° F
Humidité 66%
Précipitations 0.00 pouce
Profondeur de la couche neigeuse Non disponible.
UV 0 sur 12
Pollen Non disponible.
Qualité de l'air Non disponible.
Flu Activity Non disponible.
METAR LFRD 011830Z AUTO 36003KT 9999 SCT043 BKN072 16/12 Q1022

More Conditions Fewer Conditions

Pression 30.18 pouce
Visibilité 6.2 Miles terrestres
Nuages Nuages épars 4300 ft
Nuageux 7200 ft
Point de rosée 55 ° F
Humidité 66%
Précipitations 0.00 pouce
Profondeur de la couche neigeuse Non disponible.
UV 0 sur 12
Pollen Non disponible.
Qualité de l'air Non disponible.
Flu Activity Non disponible.
METAR LFRD 011830Z AUTO 36003KT 9999 SCT043 BKN072 16/12 Q1022

More Conditions Fewer Conditions

10-Day Weather Forecast

Almanac

Astronomie

Sep. 01, 2014 Lever Coucher
Temps réel 07:25 CEST 20:50 CEST
Crépuscule civil 06:52 CEST 21:23 CEST
Crépuscule nautique 06:12 CEST 22:02 CEST
Crépuscule astronomique 05:29 CEST 22:45 CEST
Lune 14:28 CEST Pas de coucher de lune
Durée de lumière visible 14h 30m
Longueur du jour
13h 25m
Tomorrow will be 3m 26s shorter.
Lune montante, 43% of the Moon is Illuminated
Aujourd'hui
Lune montante
Sep 2
Premier quartier
Sep 8
Pleine lune
Sep 15
Dernier quartier
Sep 24
Nouveau

Extrêmes aujourd'hui

Country Highs Country Lows

Community

WunderPhotos

Upload Photos

1,749,350 Photos téléchargées !

Nearby

Qualité de l'air

Not available.

Épaisseur de neige

Not available.

Activité sismique

Ville Distance Mag. Time & Date
No recent earthquake activity has been reported nearby.
Minimum magnitude displayed is 2.5.

Températures des eaux côtières

Lieu Température
Aucun rapport de station

Stations météo à proximité